Latest Weather Observations for Mandora

IDW60801

Issued at 10:02 am WST Monday 26 January 2015 (issued every 30 minutes, with the page automatically refreshed every 10 minutes)

About weather observations | Map of weather stations | Latest weather observations for WA | Other Formats
Station Details ID: 004019 Name: MANDORA Lat: -19.74 Lon: 120.84 Height: 7.5 m
Data from the previous 72 hours. | See also: Recent months at Mandora
Date/Time
WST
Temp
°C
App
Temp
°C
Dew
Point
Rel
Hum
%
Delta-T
°C
Wind Press
QNH
hPa
Press
MSL
hPa
Rain
since 9 am
mm
Dir
 
Spd
km/h
Gust
km/h
Spd
kts
Gust
kts
26/10:00am 32.5 35.9 24.0 61 5.9 N 13 20 7 11 1008.4 - 0.2
26/09:30am 32.5 36.5 23.7 59 6.1 N 9 15 5 8 1008.6 - 0.0
26/09:00am 31.2 35.7 24.6 68 4.6 N 9 15 5 8 1009.0 1008.9 1.8
26/08:30am 31.7 36.8 24.0 63 5.4 WNW 4 11 2 6 1008.7 - 1.8
26/08:00am 31.1 37.4 24.7 68 4.5 CALM 0 6 0 3 1008.6 - 1.8
26/07:30am 29.5 35.9 26.1 82 2.4 NNE 4 9 2 5 1008.4 - 1.8
26/07:00am 28.3 34.3 26.3 89 1.4 N 7 11 4 6 1008.8 - 1.8
26/06:30am 27.7 34.7 26.5 93 0.9 N 2 6 1 3 1009.0 - 1.8
26/06:00am 27.2 32.7 25.6 91 1.1 E 7 11 4 6 1008.1 1008.0 1.8
26/05:30am 28.0 32.5 25.2 85 2.0 S 11 17 6 9 1008.4 - 0.0
26/05:00am 27.6 32.1 25.2 87 1.7 SSE 11 17 6 9 1008.0 - 0.0
26/04:30am 27.1 32.7 24.9 88 1.5 E 4 7 2 4 1007.1 - 0.0
26/04:00am 27.1 32.4 24.9 88 1.5 ENE 6 7 3 4 1006.8 - 0.0
26/03:30am 27.3 32.7 25.1 88 1.5 ESE 6 7 3 4 1006.9 - 0.0
26/03:00am 27.4 32.5 25.0 87 1.7 E 7 9 4 5 1006.5 1006.4 0.0
26/02:30am 27.5 32.7 25.1 87 1.7 ENE 7 9 4 5 1006.4 - 0.0
26/02:00am 27.8 33.1 25.0 85 2.0 E 6 7 3 4 1006.7 - 0.0
26/01:30am 28.0 33.8 25.2 85 2.0 E 4 6 2 3 1006.8 - 0.0
26/01:00am 28.2 34.7 25.0 83 2.2 CALM 0 0 0 0 1006.7 - 0.0
26/12:30am 28.7 34.5 25.1 81 2.5 S 4 7 2 4 1007.2 - 0.0
26/12:00am 29.0 34.4 25.4 81 2.5 WSW 7 13 4 7 1007.1 1007.0 0.0
 
Date/Time
WST
Temp
°C
App
Temp
°C
Dew
Point
Rel
Hum
%
Delta-T
°C
Wind Press
QNH
hPa
Press
MSL
hPa
Rain
since 9 am
mm
Dir
 
Spd
km/h
Gust
km/h
Spd
kts
Gust
kts
25/11:30pm 29.2 34.3 25.6 81 2.5 WSW 9 13 5 7 1006.9 - 0.0
25/11:00pm 29.2 33.4 25.4 80 2.7 W 13 19 7 10 1006.8 - 0.0
25/10:30pm 29.2 33.9 25.6 81 2.5 W 11 20 6 11 1006.8 - 0.0
25/10:00pm 29.3 33.2 25.5 80 2.7 W 15 20 8 11 1006.7 - 0.0
25/09:30pm 29.1 33.0 25.5 81 2.5 W 15 20 8 11 1006.6 - 0.0
25/09:00pm 29.1 32.5 25.3 80 2.7 W 17 22 9 12 1006.6 1006.5 0.0
25/08:30pm 29.3 32.6 25.1 78 3.0 W 17 24 9 13 1006.5 - 0.0
25/08:00pm 29.5 32.5 24.6 75 3.4 W 17 24 9 13 1006.4 - 0.0
25/07:30pm 29.5 32.5 24.6 75 3.4 W 17 26 9 14 1006.2 - 0.0
25/07:00pm 29.5 32.7 24.4 74 3.6 WNW 15 24 8 13 1005.8 - 0.0
25/06:30pm 30.0 32.2 24.2 71 4.0 WNW 20 32 11 17 1005.5 - 0.0
25/06:00pm 30.7 32.6 24.4 69 4.4 WNW 22 30 12 16 1005.2 1005.1 0.0
25/05:30pm 31.5 33.4 24.4 66 5.0 WNW 22 32 12 17 1005.1 - 0.0
25/05:00pm 32.1 34.1 23.9 62 5.7 NNW 20 30 11 16 1005.1 - 0.0
25/04:30pm 32.1 32.5 23.1 59 6.2 NW 26 35 14 19 1005.2 - 0.0
25/04:00pm 32.7 33.5 23.1 57 6.6 NNW 24 33 13 18 1005.7 - 0.0
25/03:30pm 32.9 33.1 22.0 52 7.4 NNW 24 33 13 18 1006.0 - 0.0
25/03:00pm 34.2 34.2 21.6 47 8.6 N 24 33 13 18 1006.3 1006.2 0.0
25/02:30pm 33.7 32.5 21.5 49 8.3 N 30 37 16 20 1006.4 - 0.0
25/02:00pm 33.2 33.0 22.0 51 7.6 N 26 35 14 19 1006.6 - 0.0
25/01:30pm 33.3 33.7 22.4 52 7.5 N 24 33 13 18 1006.8 - 0.0
25/01:00pm 33.2 33.4 22.0 51 7.6 NNW 24 32 13 17 1006.7 - 0.0
25/12:30pm 36.4 35.5 20.6 39 10.7 N 26 35 14 19 1006.7 - 0.0
25/12:00pm 36.4 37.0 21.4 41 10.2 N 20 32 11 17 1007.2 1007.1 0.0
25/11:30am 37.0 37.4 20.7 38 11.0 N 19 28 10 15 1007.8 - 0.0
25/11:00am 37.5 37.0 17.0 30 13.2 NE 15 26 8 14 1008.1 - 0.0
25/10:30am 36.6 36.1 17.7 32 12.3 ENE 17 26 9 14 1008.6 - 0.0
25/10:00am 35.5 35.9 19.0 37 10.9 E 15 24 8 13 1008.8 - 0.0
25/09:30am 33.3 33.9 19.4 44 9.2 ENE 15 24 8 13 1009.2 - 0.0
25/09:00am 31.8 34.1 21.3 53 7.1 E 11 19 6 10 1009.7 1009.6 0.0
25/08:30am 30.3 31.9 20.8 56 6.3 E 13 20 7 11 1010.4 - 0.0
25/08:00am 29.1 30.6 21.3 62 5.2 NE 15 20 8 11 1010.3 - 0.0
25/07:30am 27.8 30.4 22.7 74 3.5 NE 13 19 7 10 1010.4 - 0.0
25/07:00am 26.9 29.6 22.9 79 2.7 ENE 13 20 7 11 1010.4 - 0.0
25/06:30am 25.8 27.8 22.3 81 2.3 ENE 15 24 8 13 1010.0 - 0.0
25/06:00am 25.7 27.0 22.4 82 2.2 ENE 19 24 10 13 1010.1 1010.0 0.0
25/05:30am 25.4 24.6 21.7 80 2.5 NE 28 44 15 24 1009.8 - 0.0
25/05:08am 25.8 24.0 21.2 76 3.0 NE 32 50 17 27 1009.1 - 0.0
25/05:00am 29.4 32.5 25.4 79 2.8 N 19 28 10 15 1008.4 - 0.0
25/04:30am 29.1 32.6 25.5 81 2.5 N 17 24 9 13 1007.2 - 0.0
25/04:00am 28.9 34.0 26.1 85 2.0 N 11 15 6 8 1007.6 - 0.0
25/03:30am 29.3 35.1 25.7 81 2.5 NE 6 11 3 6 1007.9 - 0.0
25/03:00am 29.3 33.9 25.9 82 2.4 NW 13 19 7 10 1006.6 1006.5 0.0
25/02:30am 29.2 33.4 25.4 80 2.7 NW 13 19 7 10 1006.4 - 0.0
25/02:00am 29.3 33.0 25.1 78 3.0 NNW 15 24 8 13 1006.1 - 0.0
25/01:30am 29.2 32.6 25.2 79 2.8 NW 17 26 9 14 1005.9 - 0.0
25/01:00am 29.2 32.8 25.6 81 2.5 WNW 17 26 9 14 1005.5 - 0.0
25/12:30am 29.3 32.6 25.7 81 2.5 WNW 19 30 10 16 1005.4 - 0.0
25/12:00am 29.1 32.8 25.7 82 2.4 NW 17 26 9 14 1004.9 1004.8 0.0
 
Date/Time
WST
Temp
°C
App
Temp
°C
Dew
Point
Rel
Hum
%
Delta-T
°C
Wind Press
QNH
hPa
Press
MSL
hPa
Rain
since 9 am
mm
Dir
 
Spd
km/h
Gust
km/h
Spd
kts
Gust
kts
24/11:30pm 29.2 32.6 25.8 82 2.4 NW 19 26 10 14 1005.3 - 0.0
24/11:00pm 29.4 32.5 25.4 79 2.8 NW 19 30 10 16 1005.8 - 0.0
24/10:30pm 29.6 33.3 25.8 80 2.7 NW 17 28 9 15 1005.9 - 0.0
24/10:00pm 29.6 33.3 25.8 80 2.7 NW 17 24 9 13 1006.0 - 0.0
24/09:30pm 29.9 33.5 26.1 80 2.7 NW 19 28 10 15 1005.8 - 0.0
24/09:00pm 30.0 34.1 26.4 81 2.6 NW 17 28 9 15 1005.8 1005.7 0.0
24/08:30pm 30.1 33.9 26.5 81 2.6 NW 19 30 10 16 1005.4 - 0.0
24/08:00pm 30.1 33.7 26.5 81 2.6 NW 20 30 11 16 1004.9 - 0.0
24/07:30pm 30.1 33.9 26.5 81 2.6 NW 19 28 10 15 1004.8 - 0.0
24/07:00pm 30.2 34.1 26.6 81 2.6 NNW 19 28 10 15 1004.4 - 0.0
24/06:30pm 30.3 34.3 26.7 81 2.6 NNW 19 26 10 14 1003.8 - 0.0
24/06:00pm 30.7 34.7 26.8 80 2.8 NNW 19 28 10 15 1003.7 1003.6 0.0
24/05:30pm 30.9 34.6 26.6 78 3.1 NNW 20 32 11 17 1003.6 - 0.0
24/05:00pm 30.8 34.6 26.7 79 2.9 NNW 20 32 11 17 1003.5 - 0.0
24/04:30pm 31.1 34.9 26.8 78 3.1 NNW 20 30 11 16 1003.2 - 0.0
24/04:00pm 31.3 34.8 26.8 77 3.2 NNW 22 33 12 18 1003.3 - 0.0
24/03:30pm 32.1 36.2 26.9 74 3.8 NNW 19 28 10 15 1003.4 - 0.0
24/03:00pm 32.4 35.7 27.2 74 3.8 NW 24 30 13 16 1003.6 1003.5 0.0
24/02:30pm 33.3 37.1 27.3 71 4.4 N 22 33 12 18 1003.5 - 0.0
24/02:00pm 34.5 38.4 27.5 67 5.1 N 22 30 12 16 1003.5 - 0.0
24/01:30pm 34.2 37.7 26.9 65 5.3 N 22 30 12 16 1003.7 - 0.0
24/01:00pm 34.5 38.4 27.5 67 5.1 N 22 32 12 17 1003.9 - 0.0
24/12:30pm 33.3 36.8 26.8 68 4.7 N 22 28 12 15 1004.1 - 0.0
24/12:00pm 33.6 36.9 27.1 69 4.7 N 24 30 13 16 1004.4 1004.3 0.0
24/11:30am 34.6 38.4 27.3 66 5.3 N 22 32 12 17 1004.6 - 0.0
24/11:00am 35.3 39.4 27.2 63 5.9 N 20 28 11 15 1004.9 - 0.0
24/10:30am 36.0 41.9 27.3 61 6.4 NE 11 17 6 9 1005.1 - 0.0
24/10:00am 35.2 41.0 26.0 59 6.6 ENE 7 15 4 8 1005.9 - 0.0
24/09:30am 33.7 39.0 25.9 63 5.6 NE 9 19 5 10 1006.1 - 0.0
24/09:00am 32.6 38.1 26.2 69 4.6 ENE 9 17 5 9 1006.2 1006.1 0.0
24/08:30am 31.9 39.2 26.9 75 3.6 NE 2 11 1 6 1006.4 - 0.0
24/08:00am 30.3 36.4 26.5 80 2.7 NNE 7 9 4 5 1006.5 - 0.0
24/07:30am 29.6 35.9 26.8 85 2.0 NNE 7 9 4 5 1006.3 - 0.0
24/07:00am 28.8 35.8 27.0 90 1.3 NE 4 6 2 3 1006.2 - 0.0
24/06:30am 28.3 35.9 26.7 91 1.1 CALM 0 0 0 0 1006.0 - 0.0
24/06:00am 28.1 35.5 26.5 91 1.1 CALM 0 0 0 0 1006.1 1006.0 0.0
24/05:30am 28.4 33.5 26.2 88 1.6 SW 11 15 6 8 1006.2 - 0.0
24/05:00am 29.4 34.8 26.0 82 2.4 W 9 13 5 7 1005.5 - 0.0
24/04:30am 29.3 35.0 25.9 82 2.4 WNW 7 11 4 6 1004.9 - 0.0
24/04:00am 29.3 34.6 25.9 82 2.4 NW 9 13 5 7 1004.7 - 0.0
24/03:30am 29.2 34.6 26.0 83 2.3 NW 9 15 5 8 1003.9 - 0.0
24/03:00am 29.2 33.8 26.0 83 2.3 NW 13 19 7 10 1003.9 1003.8 0.0
24/02:30am 29.1 33.5 26.3 85 2.0 NW 15 20 8 11 1003.7 - 0.0
24/02:00am 29.1 33.9 26.3 85 2.0 NW 13 17 7 9 1003.8 - 0.0
24/01:30am 29.1 33.9 26.3 85 2.0 NW 13 20 7 11 1003.9 - 0.0
24/01:00am 29.2 33.7 26.4 85 2.0 NW 15 20 8 11 1004.2 - 0.0
24/12:30am 29.3 33.9 26.5 85 2.0 NW 15 24 8 13 1004.4 - 0.0
24/12:00am 29.4 34.2 26.8 86 1.9 NNW 15 20 8 11 1004.7 1004.6 0.0
 
Date/Time
WST
Temp
°C
App
Temp
°C
Dew
Point
Rel
Hum
%
Delta-T
°C
Wind Press
QNH
hPa
Press
MSL
hPa
Rain
since 9 am
mm
Dir
 
Spd
km/h
Gust
km/h
Spd
kts
Gust
kts
23/11:30pm 29.2 34.4 26.8 87 1.7 NW 13 19 7 10 1004.7 - 0.0
23/11:00pm 29.4 34.7 27.0 87 1.7 NW 13 20 7 11 1004.7 - 0.0
23/10:30pm 29.3 35.0 27.1 88 1.6 WNW 11 19 6 10 1005.1 - 0.0
23/10:00pm 29.4 34.8 27.2 88 1.6 NW 13 17 7 9 1005.2 - 0.0
23/09:30pm 29.2 34.9 27.0 88 1.6 WNW 11 15 6 8 1004.7 - 0.0
23/09:00pm 29.2 34.5 27.0 88 1.6 NW 13 17 7 9 1004.6 1004.5 0.0
23/08:30pm 29.2 34.5 27.0 88 1.6 WNW 13 20 7 11 1004.0 - 0.0
23/08:00pm 29.3 34.9 26.9 87 1.7 WNW 11 17 6 9 1003.9 - 0.0
23/07:30pm 29.5 34.7 26.9 86 1.9 WNW 13 19 7 10 1003.7 - 0.0
23/07:00pm 29.8 34.6 26.8 84 2.2 NW 15 20 8 11 1003.2 - 0.0
23/06:30pm 30.3 34.8 26.9 82 2.4 NW 17 26 9 14 1002.7 - 0.0
23/06:00pm 30.9 34.6 26.6 78 3.1 NW 20 28 11 15 1002.1 1002.0 0.0
23/05:30pm 31.8 35.7 26.6 74 3.7 NW 19 28 10 15 1001.8 - 0.0
23/05:00pm 32.0 35.2 26.5 72 4.0 NW 22 30 12 16 1001.6 - 0.0
23/04:30pm 32.6 35.9 26.6 70 4.3 NW 22 32 12 17 1001.5 - 0.0
23/04:00pm 32.9 36.5 26.4 68 4.7 NW 20 32 11 17 1001.8 - 0.0
23/03:30pm 33.8 37.3 26.0 63 5.6 NW 19 28 10 15 1002.0 - 0.0
23/03:00pm 33.4 36.6 26.4 66 5.0 NW 22 33 12 18 1002.3 1002.2 0.0
23/02:30pm 34.1 37.8 26.6 65 5.4 NNW 20 28 11 15 1002.6 - 0.0
23/02:00pm 33.7 37.1 26.7 67 5.1 NW 22 33 12 18 1002.6 - 0.0
23/01:30pm 34.9 39.1 27.3 64 5.5 NW 20 30 11 16 1002.8 - 0.0
23/01:00pm 34.2 37.2 26.7 65 5.4 WNW 24 32 13 17 1002.6 - 0.0
23/12:30pm 34.9 37.9 26.2 60 6.3 NW 22 33 12 18 1002.9 - 0.0
23/12:00pm 34.8 38.5 27.2 64 5.5 WNW 22 32 12 17 1002.9 1002.8 0.0
23/11:30am 34.0 37.2 26.5 65 5.4 NW 22 35 12 19 1003.2 - 0.0
23/11:00am 34.5 37.8 27.2 66 5.3 NW 24 35 13 19 1003.3 - 0.0
23/10:30am 34.7 38.2 26.9 64 5.7 NW 22 35 12 19 1003.7 - 0.0

Other Formats:

Comma delimited format used in spreadsheet applications
http://www.bom.gov.au/fwo/IDW60801/IDW60801.94200.axf

JavaScript Object Notation format (JSON) in row-major order
http://www.bom.gov.au/fwo/IDW60801/IDW60801.94200.json